createdAt,value
2018-06-16T00:01:41.806Z,70.20
2018-06-16T00:04:10.591Z,69.80
2018-06-16T00:06:40.060Z,69.90
2018-06-16T00:09:10.207Z,70.20
2018-06-16T00:11:39.257Z,70.60
2018-06-16T00:14:08.388Z,71.10
2018-06-16T00:16:37.140Z,71.10
2018-06-16T00:19:06.649Z,70.90
2018-06-16T00:21:35.411Z,71.10
2018-06-16T00:24:04.463Z,71.10
2018-06-16T00:26:33.228Z,70.80
2018-06-16T00:29:02.034Z,71.00
2018-06-16T00:31:30.989Z,70.80
2018-06-16T00:33:59.716Z,70.70
2018-06-16T00:36:28.484Z,70.70
2018-06-16T00:38:57.697Z,70.70
2018-06-16T00:41:26.746Z,71.00
2018-06-16T00:43:55.578Z,70.90
2018-06-16T00:46:24.444Z,70.70
2018-06-16T00:48:53.368Z,70.90
2018-06-16T00:51:22.886Z,71.00
2018-06-16T00:53:51.823Z,70.80
2018-06-16T00:56:20.586Z,72.10
2018-06-16T00:58:49.395Z,72.80
2018-06-16T01:01:18.206Z,73.20
2018-06-16T01:03:47.312Z,73.40
2018-06-16T01:06:16.440Z,73.40
2018-06-16T01:08:45.219Z,73.60
2018-06-16T01:11:14.346Z,73.40
2018-06-16T01:13:43.559Z,73.10
2018-06-16T01:16:12.649Z,72.50
2018-06-16T01:18:41.694Z,72.40
2018-06-16T01:21:10.858Z,72.90
2018-06-16T01:23:39.995Z,73.60
2018-06-16T01:26:09.196Z,74.30
2018-06-16T01:28:37.971Z,75.50
2018-06-16T01:31:06.771Z,75.90
2018-06-16T01:33:35.630Z,75.10
2018-06-16T01:36:04.664Z,74.90
2018-06-16T01:38:33.962Z,74.80
2018-06-16T01:41:03.336Z,74.90
2018-06-16T01:43:32.156Z,75.10
2018-06-16T01:46:01.318Z,75.10
2018-06-16T01:48:30.123Z,75.10
2018-06-16T01:50:58.925Z,75.60
2018-06-16T01:53:27.715Z,76.80
2018-06-16T01:58:25.064Z,78.30
2018-06-16T02:00:54.208Z,77.60
2018-06-16T02:03:23.278Z,76.70
2018-06-16T02:08:20.981Z,77.80
2018-06-16T02:10:50.025Z,78.30
2018-06-16T02:13:18.764Z,78.10
2018-06-16T02:15:48.197Z,77.40
2018-06-16T02:18:16.986Z,77.30
2018-06-16T02:20:45.788Z,77.50
2018-06-16T02:23:14.728Z,77.40
2018-06-16T02:25:43.508Z,77.50
2018-06-16T02:28:12.288Z,78.00
2018-06-16T02:30:41.211Z,78.00
2018-06-16T02:33:10.109Z,78.10
2018-06-16T02:35:39.243Z,78.30
2018-06-16T02:38:08.378Z,78.40
2018-06-16T02:40:37.387Z,78.30
2018-06-16T02:43:06.177Z,78.50
2018-06-16T02:45:34.905Z,78.50
2018-06-16T02:48:03.649Z,78.30
2018-06-16T02:50:32.588Z,78.40
2018-06-16T02:53:01.803Z,78.20
2018-06-16T02:55:30.537Z,78.30
2018-06-16T02:57:59.657Z,78.30
2018-06-16T03:00:28.833Z,78.40
2018-06-16T03:02:57.928Z,78.50
2018-06-16T03:05:26.666Z,78.40
2018-06-16T03:07:55.735Z,78.50
2018-06-16T03:10:24.851Z,78.70
2018-06-16T03:12:53.672Z,78.40
2018-06-16T03:15:22.462Z,78.40
2018-06-16T03:17:51.686Z,78.50
2018-06-16T03:20:20.936Z,78.20
2018-06-16T03:22:50.797Z,78.10
2018-06-16T03:25:19.705Z,79.00
2018-06-16T03:27:48.594Z,78.10
2018-06-16T03:32:46.156Z,77.90
2018-06-16T03:35:14.989Z,77.70
2018-06-16T03:37:44.038Z,77.50
2018-06-16T03:40:12.802Z,78.10
2018-06-16T03:42:41.550Z,78.20
2018-06-16T03:45:10.633Z,78.00
2018-06-16T03:47:39.401Z,77.50
2018-06-16T03:50:08.485Z,77.10
2018-06-16T03:52:37.973Z,77.10
2018-06-16T03:55:06.934Z,77.50
2018-06-16T03:57:36.040Z,77.80
2018-06-16T04:00:05.427Z,78.00
2018-06-16T04:02:34.514Z,77.30
2018-06-16T04:05:03.716Z,76.30
2018-06-16T04:07:32.594Z,76.10
2018-06-16T04:10:01.481Z,77.00
2018-06-16T04:12:30.296Z,75.30
2018-06-16T04:14:59.264Z,77.40
2018-06-16T04:17:28.512Z,77.10
2018-06-16T04:19:57.396Z,77.60
2018-06-16T04:22:26.345Z,77.30
2018-06-16T04:24:55.486Z,76.50
2018-06-16T04:27:24.922Z,75.60
2018-06-16T04:39:43.707Z,74.90
2018-06-16T04:42:12.473Z,73.80
2018-06-16T04:44:41.257Z,75.00
2018-06-16T04:47:10.113Z,75.40
2018-06-16T04:49:38.964Z,75.10
2018-06-16T04:52:08.356Z,74.70
2018-06-16T04:54:37.244Z,74.80
2018-06-16T04:57:06.146Z,74.20
2018-06-16T04:59:35.071Z,74.20
2018-06-16T05:02:04.400Z,73.70
2018-06-16T05:04:33.262Z,73.50
2018-06-16T05:07:02.442Z,72.90
2018-06-16T05:09:31.148Z,71.20
2018-06-16T05:12:00.294Z,71.30
2018-06-16T05:14:29.074Z,71.50
2018-06-16T05:16:57.900Z,70.80
2018-06-16T05:19:26.813Z,70.70
2018-06-16T05:21:55.589Z,70.40
2018-06-16T05:24:24.532Z,68.90
2018-06-16T05:26:53.810Z,68.00
2018-06-16T05:29:22.531Z,66.30
2018-06-16T05:31:51.468Z,63.60
2018-06-16T05:34:20.231Z,64.90
2018-06-16T05:36:48.962Z,66.20
2018-06-16T05:39:17.694Z,64.30
2018-06-16T05:41:46.817Z,63.30
2018-06-16T05:44:15.617Z,63.50
2018-06-16T05:49:12.983Z,63.00
2018-06-16T05:51:41.831Z,64.30
2018-06-16T05:54:10.620Z,65.50
2018-06-16T05:56:39.406Z,65.20
2018-06-16T05:59:08.865Z,63.70
2018-06-16T06:01:37.624Z,61.80
2018-06-16T06:04:06.410Z,64.10
2018-06-16T06:06:35.488Z,65.70
2018-06-16T06:09:05.998Z,64.90
2018-06-16T06:11:34.754Z,62.10
2018-06-16T06:14:03.880Z,60.30
2018-06-16T06:16:34.156Z,60.40
2018-06-16T06:19:03.215Z,59.90
2018-06-16T06:21:32.344Z,60.60
2018-06-16T06:24:01.350Z,62.00
2018-06-16T06:26:30.103Z,62.30
2018-06-16T06:28:59.986Z,62.90
2018-06-16T06:31:29.173Z,61.20
2018-06-16T06:33:57.920Z,60.60
2018-06-16T06:36:27.106Z,60.50
2018-06-16T06:38:56.348Z,60.40
2018-06-16T06:41:25.296Z,61.00
2018-06-16T06:43:54.188Z,63.70
2018-06-16T06:46:23.216Z,64.90
2018-06-16T06:48:52.412Z,65.30
2018-06-16T06:51:22.088Z,63.90
2018-06-16T06:53:51.075Z,62.40
2018-06-16T06:56:19.914Z,61.40
2018-06-16T06:58:48.748Z,59.60
2018-06-16T07:01:17.871Z,59.60
2018-06-16T07:03:46.609Z,58.00
2018-06-16T07:06:15.375Z,57.80
2018-06-16T07:08:44.128Z,57.80
2018-06-16T07:11:12.889Z,58.60
2018-06-16T07:13:41.995Z,59.50
2018-06-16T07:16:11.077Z,58.20
2018-06-16T07:18:39.821Z,59.90
2018-06-16T07:21:08.622Z,61.90
2018-06-16T07:23:37.405Z,60.40
2018-06-16T07:26:07.082Z,60.90
2018-06-16T07:28:35.888Z,59.90
2018-06-16T07:31:05.146Z,59.20
2018-06-16T07:33:34.349Z,61.40
2018-06-16T07:36:03.891Z,59.40
2018-06-16T07:38:33.024Z,59.10
2018-06-16T07:41:02.257Z,57.90
2018-06-16T07:43:31.179Z,56.50
2018-06-16T07:46:00.216Z,56.60
2018-06-16T07:48:29.124Z,55.00
2018-06-16T07:50:58.019Z,57.10
2018-06-16T07:53:26.851Z,56.60
2018-06-16T07:55:55.671Z,54.40
2018-06-16T07:58:24.471Z,56.00
2018-06-16T08:00:53.298Z,55.60
2018-06-16T08:03:22.105Z,55.10
2018-06-16T08:05:50.942Z,52.80
2018-06-16T08:08:19.701Z,52.00
2018-06-16T08:10:48.507Z,49.90
2018-06-16T08:13:17.315Z,51.00
2018-06-16T08:15:46.767Z,49.20
2018-06-16T08:18:16.040Z,47.00
2018-06-16T08:20:44.826Z,46.10
2018-06-16T08:23:13.921Z,48.20
2018-06-16T08:25:42.774Z,47.00
2018-06-16T08:28:11.622Z,47.00
2018-06-16T08:30:40.725Z,46.70
2018-06-16T08:33:09.767Z,48.40
2018-06-16T08:35:38.952Z,45.10
2018-06-16T08:38:07.902Z,46.50
2018-06-16T08:40:37.457Z,48.00
2018-06-16T08:43:06.986Z,47.10
2018-06-16T08:45:35.969Z,46.50
2018-06-16T08:48:05.067Z,44.70
2018-06-16T08:50:33.917Z,44.90
2018-06-16T08:53:02.867Z,45.40
2018-06-16T08:55:31.735Z,44.50
2018-06-16T08:58:00.683Z,44.30
2018-06-16T09:00:30.359Z,45.20
2018-06-16T09:02:59.228Z,44.40
2018-06-16T09:05:28.563Z,43.90
2018-06-16T09:07:57.924Z,44.60
2018-06-16T09:10:27.981Z,45.00
2018-06-16T09:12:57.311Z,44.10
2018-06-16T09:15:26.423Z,44.10
2018-06-16T09:17:56.133Z,45.20
2018-06-16T09:20:25.831Z,44.20
2018-06-16T09:22:54.639Z,45.40
2018-06-16T09:25:23.513Z,46.20
2018-06-16T09:27:52.451Z,45.10
2018-06-16T09:30:21.698Z,45.90
2018-06-16T09:32:50.971Z,45.60
2018-06-16T09:35:20.571Z,44.80
2018-06-16T09:37:49.914Z,46.10
2018-06-16T09:40:18.844Z,45.70
2018-06-16T09:42:47.880Z,45.40
2018-06-16T09:45:17.170Z,45.00
2018-06-16T09:47:46.023Z,45.20
2018-06-16T09:50:15.459Z,44.80
2018-06-16T09:52:44.622Z,44.60
2018-06-16T09:55:13.461Z,43.90
2018-06-16T09:57:42.585Z,45.10
2018-06-16T10:00:15.600Z,45.10
2018-06-16T10:02:44.605Z,45.40
2018-06-16T10:05:13.399Z,46.60
2018-06-16T10:07:42.734Z,46.10
2018-06-16T10:10:12.017Z,46.50
2018-06-16T10:12:40.821Z,46.70
2018-06-16T10:15:09.827Z,45.90
2018-06-16T10:17:38.635Z,46.30
2018-06-16T10:20:07.798Z,47.00
2018-06-16T10:22:36.687Z,46.50
2018-06-16T10:25:05.883Z,46.00
2018-06-16T10:27:34.650Z,46.50
2018-06-16T10:30:03.563Z,46.10
2018-06-16T10:32:32.497Z,45.10
2018-06-16T10:35:01.355Z,44.60
2018-06-16T10:37:30.389Z,43.40
2018-06-16T10:39:59.493Z,43.40
2018-06-16T10:42:28.717Z,43.80
2018-06-16T10:44:57.623Z,43.70
2018-06-16T10:47:26.391Z,43.80
2018-06-16T10:49:55.653Z,43.80
2018-06-16T10:52:24.429Z,43.20
2018-06-16T10:54:53.323Z,43.90
2018-06-16T10:57:22.426Z,43.90
2018-06-16T10:59:51.197Z,43.10
2018-06-16T11:02:19.923Z,40.80
2018-06-16T11:04:48.747Z,41.60
2018-06-16T11:07:17.489Z,42.60
2018-06-16T11:09:46.281Z,40.00
2018-06-16T11:12:15.191Z,41.50
2018-06-16T11:14:49.721Z,42.80
2018-06-16T11:17:19.667Z,42.10
2018-06-16T11:19:48.804Z,42.60
2018-06-16T11:22:17.957Z,42.00
2018-06-16T11:24:47.006Z,41.20
2018-06-16T11:27:16.067Z,40.40
2018-06-16T11:29:45.512Z,40.30
2018-06-16T11:32:14.366Z,41.30
2018-06-16T11:34:43.274Z,42.70
2018-06-16T11:37:12.313Z,42.40
2018-06-16T11:39:41.898Z,41.70
2018-06-16T11:42:11.358Z,41.90
2018-06-16T11:44:40.420Z,41.60
2018-06-16T11:47:10.399Z,41.30
2018-06-16T11:49:39.299Z,41.90
2018-06-16T11:52:08.261Z,41.10
2018-06-16T11:54:37.583Z,40.10
2018-06-16T11:57:06.910Z,38.50
2018-06-16T11:59:35.733Z,38.20
2018-06-16T12:02:04.925Z,37.20
2018-06-16T12:04:34.159Z,38.40
2018-06-16T12:07:02.997Z,37.60
2018-06-16T12:09:33.627Z,39.00
2018-06-16T12:12:02.743Z,40.10
2018-06-16T12:14:31.558Z,39.40
2018-06-16T12:17:00.663Z,39.60
2018-06-16T12:19:29.502Z,39.60
2018-06-16T12:21:58.254Z,39.80
2018-06-16T12:24:27.081Z,41.00
2018-06-16T12:26:55.968Z,40.80
2018-06-16T12:29:25.225Z,41.20
2018-06-16T12:31:54.164Z,40.80
2018-06-16T12:34:22.976Z,39.70
2018-06-16T12:36:51.932Z,40.20
2018-06-16T12:39:21.204Z,40.00
2018-06-16T12:41:50.419Z,40.70
2018-06-16T12:44:19.237Z,40.00
2018-06-16T12:46:48.297Z,40.90
2018-06-16T12:49:17.582Z,41.40
2018-06-16T12:51:46.863Z,41.00
2018-06-16T12:54:15.688Z,42.00
2018-06-16T12:56:44.881Z,41.90
2018-06-16T12:59:13.889Z,41.70
2018-06-16T13:01:42.795Z,42.00
2018-06-16T13:04:12.009Z,43.10
2018-06-16T13:06:41.145Z,42.90
2018-06-16T13:09:10.662Z,42.60
2018-06-16T13:11:39.425Z,42.40
2018-06-16T13:14:08.564Z,42.60
2018-06-16T13:16:37.701Z,43.10
2018-06-16T13:21:35.000Z,42.80
2018-06-16T13:24:04.267Z,43.30
2018-06-16T13:26:33.476Z,43.00
2018-06-16T13:29:03.093Z,43.60
2018-06-16T13:31:32.424Z,44.20
2018-06-16T13:34:01.269Z,43.90
2018-06-16T13:36:30.255Z,44.10
2018-06-16T13:39:00.232Z,44.20
2018-06-16T13:41:29.277Z,44.20
2018-06-16T13:43:58.128Z,44.20
2018-06-16T13:46:27.260Z,44.70
2018-06-16T13:48:56.132Z,44.80
2018-06-16T13:51:24.965Z,44.70
2018-06-16T13:53:53.769Z,44.60
2018-06-16T13:56:22.601Z,44.40
2018-06-16T13:58:51.378Z,45.90
2018-06-16T14:01:20.244Z,45.70
2018-06-16T14:03:49.054Z,45.70
2018-06-16T14:06:18.183Z,45.50
2018-06-16T14:08:47.001Z,44.70
2018-06-16T14:11:15.805Z,45.00
2018-06-16T14:13:44.573Z,44.00
2018-06-16T14:16:13.489Z,44.40
2018-06-16T14:18:42.392Z,45.00
2018-06-16T14:21:11.405Z,45.10
2018-06-16T14:23:40.330Z,44.70
2018-06-16T14:26:09.280Z,45.80
2018-06-16T14:28:38.317Z,45.70
2018-06-16T14:31:07.770Z,45.10
2018-06-16T14:33:36.877Z,45.10
2018-06-16T14:36:06.899Z,45.70
2018-06-16T14:38:35.833Z,45.30
2018-06-16T14:41:04.765Z,44.70
2018-06-16T14:43:34.589Z,45.40
2018-06-16T14:46:03.820Z,45.20
2018-06-16T14:48:32.969Z,45.00
2018-06-16T14:51:02.438Z,44.90
2018-06-16T14:53:31.606Z,46.00
2018-06-16T14:56:00.510Z,45.10
2018-06-16T14:58:29.453Z,45.20
2018-06-16T15:00:58.646Z,45.00
2018-06-16T15:03:27.478Z,44.90
2018-06-16T15:05:56.290Z,44.80
2018-06-16T15:08:25.537Z,44.60
2018-06-16T15:10:54.382Z,44.40
2018-06-16T15:13:23.461Z,44.20
2018-06-16T15:15:52.530Z,44.40
2018-06-16T15:18:21.749Z,44.20
2018-06-16T15:20:50.707Z,44.60
2018-06-16T15:23:19.934Z,44.20
2018-06-16T15:25:48.798Z,44.50
2018-06-16T15:28:17.699Z,44.00
2018-06-16T15:30:46.990Z,44.30
2018-06-16T15:33:16.016Z,44.70
2018-06-16T15:35:45.332Z,44.40
2018-06-16T15:38:14.333Z,44.40
2018-06-16T15:40:43.387Z,43.90
2018-06-16T15:43:12.502Z,44.60
2018-06-16T15:45:41.420Z,44.30
2018-06-16T15:48:10.503Z,43.80
2018-06-16T15:50:39.268Z,43.90
2018-06-16T15:53:08.372Z,44.60
2018-06-16T15:55:37.426Z,45.00
2018-06-16T15:58:06.906Z,45.00
2018-06-16T16:00:36.068Z,44.80
2018-06-16T16:03:05.582Z,45.20
2018-06-16T16:05:34.689Z,44.80
2018-06-16T16:08:03.788Z,44.20
2018-06-16T16:10:32.576Z,44.30
2018-06-16T16:13:01.540Z,44.50
2018-06-16T16:15:30.427Z,44.90
2018-06-16T16:17:59.301Z,44.90
2018-06-16T16:20:28.321Z,44.60
2018-06-16T16:22:57.380Z,44.40
2018-06-16T16:25:26.334Z,44.40
2018-06-16T16:27:55.358Z,44.70
2018-06-16T16:30:24.361Z,44.80
2018-06-16T16:32:53.579Z,45.30
2018-06-16T16:35:22.450Z,45.30
2018-06-16T16:37:51.575Z,45.40
2018-06-16T16:40:20.471Z,45.20
2018-06-16T16:42:49.457Z,45.40
2018-06-16T16:45:18.584Z,44.80
2018-06-16T16:47:47.697Z,44.50
2018-06-16T16:50:16.467Z,44.30
2018-06-16T16:52:45.631Z,44.10
2018-06-16T16:55:14.740Z,44.40
2018-06-16T16:57:43.600Z,44.60
2018-06-16T17:00:12.416Z,44.70
2018-06-16T17:02:41.512Z,44.60
2018-06-16T17:05:10.332Z,44.40
2018-06-16T17:07:39.096Z,45.10
2018-06-16T17:10:08.681Z,45.10
2018-06-16T17:12:37.941Z,44.80
2018-06-16T17:15:07.155Z,44.60
2018-06-16T17:17:36.199Z,44.80
2018-06-16T17:20:05.258Z,44.90
2018-06-16T17:22:34.453Z,44.90
2018-06-16T17:25:03.382Z,45.20
2018-06-16T17:27:32.641Z,45.60
2018-06-16T17:30:01.882Z,45.80
2018-06-16T17:32:31.348Z,46.00
2018-06-16T17:35:00.142Z,45.90
2018-06-16T17:37:28.981Z,46.40
2018-06-16T17:39:57.860Z,46.40
2018-06-16T17:42:27.018Z,46.40
2018-06-16T17:44:57.553Z,46.60
2018-06-16T17:47:27.460Z,46.80
2018-06-16T17:49:56.347Z,46.90
2018-06-16T17:52:25.513Z,46.60
2018-06-16T17:54:54.736Z,46.60
2018-06-16T17:57:23.867Z,47.10
2018-06-16T17:59:52.694Z,47.10
2018-06-16T18:02:21.513Z,47.30
2018-06-16T18:04:51.086Z,47.50
2018-06-16T18:07:20.116Z,47.60
2018-06-16T18:09:49.390Z,47.70
2018-06-16T18:12:18.420Z,47.90
2018-06-16T18:14:47.585Z,48.00
2018-06-16T18:17:16.888Z,48.10
2018-06-16T18:19:45.858Z,47.80
2018-06-16T18:22:15.219Z,47.90
2018-06-16T18:24:44.171Z,48.30
2018-06-16T18:27:13.316Z,48.90
2018-06-16T18:29:43.780Z,48.20
2018-06-16T18:32:12.790Z,48.40
2018-06-16T18:34:41.986Z,48.50
2018-06-16T18:37:11.294Z,48.60
2018-06-16T18:39:40.086Z,48.70
2018-06-16T18:42:10.060Z,48.70
2018-06-16T18:44:39.386Z,48.70
2018-06-16T18:47:08.278Z,48.50
2018-06-16T18:49:37.138Z,49.00
2018-06-16T18:52:06.336Z,48.90
2018-06-16T18:54:35.163Z,49.00
2018-06-16T18:57:04.492Z,48.90
2018-06-16T18:59:33.310Z,49.00
2018-06-16T19:02:02.191Z,48.90
2018-06-16T19:04:31.402Z,48.90
2018-06-16T19:07:00.609Z,48.80
2018-06-16T19:09:30.155Z,48.90
2018-06-16T19:11:59.005Z,48.90
2018-06-16T19:14:27.892Z,49.10
2018-06-16T19:16:56.951Z,49.10
2018-06-16T19:19:26.069Z,49.30
2018-06-16T19:21:54.981Z,49.40
2018-06-16T19:24:23.977Z,49.40
2018-06-16T19:26:53.023Z,49.70
2018-06-16T19:29:22.235Z,49.70
2018-06-16T19:31:51.562Z,49.70
2018-06-16T19:34:20.430Z,49.70
2018-06-16T19:36:49.319Z,49.70
2018-06-16T19:39:18.433Z,49.60
2018-06-16T19:41:47.668Z,50.50
2018-06-16T19:44:16.527Z,49.70
2018-06-16T19:46:45.401Z,49.60
2018-06-16T19:49:14.216Z,49.80
2018-06-16T19:51:43.060Z,49.50
2018-06-16T19:54:12.086Z,49.80
2018-06-16T19:56:40.974Z,50.00
2018-06-16T19:59:09.839Z,50.00
2018-06-16T20:01:39.046Z,50.20
2018-06-16T20:04:08.005Z,50.30
2018-06-16T20:06:37.009Z,50.20
2018-06-16T20:09:06.996Z,50.20
2018-06-16T20:11:36.043Z,51.20
2018-06-16T20:14:05.106Z,50.30
2018-06-16T20:16:34.143Z,50.50
2018-06-16T20:19:03.192Z,50.70
2018-06-16T20:21:32.801Z,50.70
2018-06-16T20:24:01.723Z,50.80
2018-06-16T20:26:31.074Z,50.80
2018-06-16T20:29:00.933Z,50.90
2018-06-16T20:31:29.871Z,51.10
2018-06-16T20:33:59.066Z,51.20
2018-06-16T20:36:28.112Z,51.20
2018-06-16T20:38:57.526Z,51.50
2018-06-16T20:41:26.633Z,51.70
2018-06-16T20:43:55.827Z,51.90
2018-06-16T20:46:24.659Z,52.20
2018-06-16T20:48:53.819Z,52.50
2018-06-16T20:51:22.670Z,52.80
2018-06-16T20:53:51.527Z,52.60
2018-06-16T20:56:20.401Z,52.60
2018-06-16T20:58:49.382Z,52.60
2018-06-16T21:01:18.345Z,52.80
2018-06-16T21:03:47.317Z,52.90
2018-06-16T21:06:16.389Z,52.90
2018-06-16T21:08:45.324Z,52.80
2018-06-16T21:11:14.286Z,53.00
2018-06-16T21:13:43.237Z,53.00
2018-06-16T21:16:12.143Z,53.80
2018-06-16T21:18:41.138Z,52.80
2018-06-16T21:21:10.563Z,53.10
2018-06-16T21:23:40.267Z,53.10
2018-06-16T21:26:09.701Z,52.90
2018-06-16T21:28:38.590Z,53.70
2018-06-16T21:31:07.513Z,53.00
2018-06-16T21:33:36.363Z,52.80
2018-06-16T21:36:05.778Z,52.90
2018-06-16T21:38:34.581Z,52.50
2018-06-16T21:41:03.691Z,52.80
2018-06-16T21:43:32.524Z,52.60
2018-06-16T21:46:01.349Z,52.50
2018-06-16T21:48:30.534Z,52.30
2018-06-16T21:50:59.344Z,52.70
2018-06-16T21:53:28.196Z,52.60
2018-06-16T21:55:57.392Z,52.80
2018-06-16T21:58:26.193Z,52.80
2018-06-16T22:00:55.026Z,52.90
2018-06-16T22:03:24.224Z,52.90
2018-06-16T22:05:53.659Z,53.10
2018-06-16T22:08:28.217Z,53.40
2018-06-16T22:10:57.530Z,53.30
2018-06-16T22:13:26.812Z,53.30
2018-06-16T22:15:56.093Z,53.40
2018-06-16T22:18:25.452Z,53.40
2018-06-16T22:20:54.760Z,53.60
2018-06-16T22:23:23.686Z,53.80
2018-06-16T22:25:53.009Z,53.70
2018-06-16T22:28:22.024Z,53.90
2018-06-16T22:30:51.118Z,53.80
2018-06-16T22:33:20.302Z,53.70
2018-06-16T22:35:49.497Z,53.60
2018-06-16T22:38:18.621Z,53.80
2018-06-16T22:40:47.433Z,53.70
2018-06-16T22:43:16.273Z,53.80
2018-06-16T22:45:45.083Z,54.00
2018-06-16T22:48:13.865Z,54.40
2018-06-16T22:50:42.731Z,54.80
2018-06-16T22:53:11.518Z,55.20
2018-06-16T22:55:40.289Z,55.20
2018-06-16T22:58:09.086Z,55.30
2018-06-16T23:00:38.561Z,55.30
2018-06-16T23:03:08.373Z,55.60
2018-06-16T23:05:37.538Z,56.70
2018-06-16T23:08:07.112Z,55.90
2018-06-16T23:10:36.297Z,55.60
2018-06-16T23:13:05.327Z,55.70
2018-06-16T23:15:34.184Z,56.00
2018-06-16T23:18:03.185Z,56.10
2018-06-16T23:20:32.474Z,56.20
2018-06-16T23:23:01.330Z,56.20
2018-06-16T23:25:30.562Z,56.50
2018-06-16T23:27:59.808Z,56.60
2018-06-16T23:30:28.600Z,56.80
2018-06-16T23:32:57.430Z,56.70
2018-06-16T23:35:26.209Z,57.00
2018-06-16T23:37:55.308Z,57.20
2018-06-16T23:40:24.106Z,57.00
2018-06-16T23:42:53.068Z,57.00
2018-06-16T23:45:22.506Z,57.10
2018-06-16T23:47:51.592Z,57.10
2018-06-16T23:50:20.375Z,57.80
2018-06-16T23:52:49.231Z,56.80
2018-06-16T23:55:18.128Z,57.10
2018-06-16T23:57:46.859Z,57.10
